Startpagina
METAR-TAF:

METAR-TAF

Vliegvelden :

Sialkot, Pakistan

breedte: 32-32N, lengte: 74-22E, hoogte: 255 m

Actueel weer

Dit bericht is 1 uur en het 9 minuten geleden gemaakt, om 05:00 UTC
Wind 4 kt uit het oosten
Temperatuur 18°C
Vochtigheid 59%
Druk 1016 hPa
Zicht: 4000 m
Weinig wolken op 10000 ft
rook

METAR: OPST 180500Z 09004KT 4000 FU FEW100 18/10 Q1016 NOSIG RH58

Tijdstip: 11:09 (06:09 UTC)


TAF: ontbreekt

Waarnemingen en weersverwachtingen van meer dan 4000 vliegvelden (METAR en TAF).

De beschikbare stations zijn de gele en rode punten op de kaart.

Ga met uw muis naar het station om de naam te zien.

Klik dan om waarnemingen en weersverwachtingen te zien.

kaart wijzigen: klik op de groene knoppen met een zwart kruis om in te zoomen, op de groene knop met een streepje om uit te zoomen of op de groene pijlen voor aangrenzende kaarten.


METAR-TAF: